sensor_id;sensor_type;location;lat;lon;timestamp;pressure;altitude;pressure_sealevel;temperature;humidity
34103;BME280;20381;54.498;18.206;2023-07-13T00:00:06;99163.36;;;13.61;96.21
34103;BME280;20381;54.498;18.206;2023-07-13T00:02:36;99141.50;;;13.42;96.13
34103;BME280;20381;54.498;18.206;2023-07-13T00:05:04;99171.17;;;13.55;96.34
34103;BME280;20381;54.498;18.206;2023-07-13T00:07:30;99171.38;;;13.52;96.42
34103;BME280;20381;54.498;18.206;2023-07-13T00:09:57;99172.91;;;13.49;96.67
34103;BME280;20381;54.498;18.206;2023-07-13T00:12:28;99174.22;;;13.49;96.91
34103;BME280;20381;54.498;18.206;2023-07-13T00:14:59;99169.15;;;13.53;98.10
34103;BME280;20381;54.498;18.206;2023-07-13T00:17:27;99173.60;;;13.84;99.34
34103;BME280;20381;54.498;18.206;2023-07-13T00:19:55;99173.60;;;13.84;99.34
34103;BME280;20381;54.498;18.206;2023-07-13T00:22:23;99167.34;;;14.10;99.47
34103;BME280;20381;54.498;18.206;2023-07-13T00:24:52;99167.34;;;14.10;99.47
34103;BME280;20381;54.498;18.206;2023-07-13T00:27:25;99171.02;;;14.21;99.29
34103;BME280;20381;54.498;18.206;2023-07-13T00:29:53;99166.98;;;14.28;98.97
34103;BME280;20381;54.498;18.206;2023-07-13T00:32:19;99151.23;;;14.28;98.77
34103;BME280;20381;54.498;18.206;2023-07-13T00:34:48;99145.34;;;14.37;99.28
34103;BME280;20381;54.498;18.206;2023-07-13T00:37:19;99142.13;;;14.45;99.55
34103;BME280;20381;54.498;18.206;2023-07-13T00:39:44;99141.05;;;14.54;99.50
34103;BME280;20381;54.498;18.206;2023-07-13T00:42:11;99142.48;;;14.59;99.28
34103;BME280;20381;54.498;18.206;2023-07-13T00:44:59;99135.59;;;14.63;99.04
34103;BME280;20381;54.498;18.206;2023-07-13T00:47:07;99141.67;;;14.64;99.30
34103;BME280;20381;54.498;18.206;2023-07-13T00:49:35;99150.06;;;14.69;99.57
34103;BME280;20381;54.498;18.206;2023-07-13T00:52:05;99145.41;;;14.72;99.42
34103;BME280;20381;54.498;18.206;2023-07-13T00:54:39;99147.81;;;14.75;99.67
34103;BME280;20381;54.498;18.206;2023-07-13T00:57:05;99156.08;;;14.76;99.49
34103;BME280;20381;54.498;18.206;2023-07-13T00:59:34;99163.58;;;14.75;99.16
34103;BME280;20381;54.498;18.206;2023-07-13T01:02:02;99168.23;;;14.72;98.91
34103;BME280;20381;54.498;18.206;2023-07-13T01:04:29;99174.19;;;14.68;99.17
34103;BME280;20381;54.498;18.206;2023-07-13T01:06:56;99174.45;;;14.71;99.23
34103;BME280;20381;54.498;18.206;2023-07-13T01:09:25;99183.03;;;14.73;99.29
34103;BME280;20381;54.498;18.206;2023-07-13T01:11:52;99175.15;;;14.73;99.44
34103;BME280;20381;54.498;18.206;2023-07-13T01:14:18;99174.22;;;14.74;99.36
34103;BME280;20381;54.498;18.206;2023-07-13T01:16:46;99178.41;;;14.76;99.75
34103;BME280;20381;54.498;18.206;2023-07-13T01:21:51;99185.94;;;14.81;99.91
34103;BME280;20381;54.498;18.206;2023-07-13T01:24:18;99184.63;;;14.81;99.71
34103;BME280;20381;54.498;18.206;2023-07-13T01:26:45;99190.62;;;14.83;99.62
34103;BME280;20381;54.498;18.206;2023-07-13T01:29:11;99183.22;;;14.83;99.63
34103;BME280;20381;54.498;18.206;2023-07-13T01:31:37;99183.31;;;14.81;99.65
34103;BME280;20381;54.498;18.206;2023-07-13T01:34:23;99179.75;;;14.82;99.70
34103;BME280;20381;54.498;18.206;2023-07-13T01:36:49;99186.33;;;14.82;99.70
34103;BME280;20381;54.498;18.206;2023-07-13T01:39:17;99180.59;;;14.83;99.80
34103;BME280;20381;54.498;18.206;2023-07-13T01:41:44;99178.05;;;14.81;99.74
34103;BME280;20381;54.498;18.206;2023-07-13T01:44:10;99185.23;;;14.79;99.73
34103;BME280;20381;54.498;18.206;2023-07-13T01:46:36;99183.55;;;14.78;99.87
34103;BME280;20381;54.498;18.206;2023-07-13T01:49:02;99187.48;;;14.78;99.86
34103;BME280;20381;54.498;18.206;2023-07-13T01:51:29;99186.17;;;14.78;99.96
34103;BME280;20381;54.498;18.206;2023-07-13T01:53:55;99188.92;;;14.76;100.00
34103;BME280;20381;54.498;18.206;2023-07-13T01:56:21;99193.35;;;14.76;100.00
34103;BME280;20381;54.498;18.206;2023-07-13T01:58:48;99195.98;;;14.76;100.00
34103;BME280;20381;54.498;18.206;2023-07-13T02:01:14;99199.53;;;14.75;100.00
34103;BME280;20381;54.498;18.206;2023-07-13T02:03:41;99200.50;;;14.74;100.00
34103;BME280;20381;54.498;18.206;2023-07-13T02:06:07;99196.55;;;14.74;100.00
34103;BME280;20381;54.498;18.206;2023-07-13T02:08:33;99197.88;;;14.74;100.00
34103;BME280;20381;54.498;18.206;2023-07-13T02:11:02;99203.13;;;14.74;100.00
34103;BME280;20381;54.498;18.206;2023-07-13T02:13:29;99202.16;;;14.75;100.00
34103;BME280;20381;54.498;18.206;2023-07-13T02:15:55;99200.85;;;14.75;100.00
34103;BME280;20381;54.498;18.206;2023-07-13T02:18:22;99203.13;;;14.74;100.00
34103;BME280;20381;54.498;18.206;2023-07-13T02:20:48;99204.05;;;14.73;100.00
34103;BME280;20381;54.498;18.206;2023-07-13T02:23:14;99205.27;;;14.74;100.00
34103;BME280;20381;54.498;18.206;2023-07-13T02:25:40;99201.23;;;14.76;100.00
34103;BME280;20381;54.498;18.206;2023-07-13T02:28:07;99201.94;;;14.78;100.00
34103;BME280;20381;54.498;18.206;2023-07-13T02:30:34;99201.01;;;14.79;100.00
34103;BME280;20381;54.498;18.206;2023-07-13T02:33:01;99215.81;;;14.80;100.00
34103;BME280;20381;54.498;18.206;2023-07-13T02:35:28;99220.84;;;14.83;100.00
34103;BME280;20381;54.498;18.206;2023-07-13T02:37:55;99213.70;;;14.85;100.00
34103;BME280;20381;54.498;18.206;2023-07-13T02:40:21;99216.33;;;14.85;100.00
34103;BME280;20381;54.498;18.206;2023-07-13T02:42:47;99213.70;;;14.85;100.00
34103;BME280;20381;54.498;18.206;2023-07-13T02:45:14;99222.41;;;14.86;100.00
34103;BME280;20381;54.498;18.206;2023-07-13T02:47:42;99229.23;;;14.88;100.00
34103;BME280;20381;54.498;18.206;2023-07-13T02:50:09;99215.77;;;14.93;100.00
34103;BME280;20381;54.498;18.206;2023-07-13T02:52:35;99214.68;;;14.95;100.00
34103;BME280;20381;54.498;18.206;2023-07-13T02:55:02;99224.03;;;14.99;100.00
34103;BME280;20381;54.498;18.206;2023-07-13T02:57:29;99221.91;;;15.05;100.00
34103;BME280;20381;54.498;18.206;2023-07-13T02:59:56;99215.46;;;15.09;100.00
34103;BME280;20381;54.498;18.206;2023-07-13T03:02:22;99209.97;;;15.12;100.00
34103;BME280;20381;54.498;18.206;2023-07-13T03:04:48;99210.13;;;15.16;100.00
34103;BME280;20381;54.498;18.206;2023-07-13T03:07:14;99213.84;;;15.19;100.00
34103;BME280;20381;54.498;18.206;2023-07-13T03:09:41;99212.64;;;15.23;100.00
34103;BME280;20381;54.498;18.206;2023-07-13T03:12:08;99213.14;;;15.28;100.00
34103;BME280;20381;54.498;18.206;2023-07-13T03:14:34;99211.11;;;15.32;100.00
34103;BME280;20381;54.498;18.206;2023-07-13T03:17:00;99215.20;;;15.36;100.00
34103;BME280;20381;54.498;18.206;2023-07-13T03:19:27;99211.61;;;15.37;100.00
34103;BME280;20381;54.498;18.206;2023-07-13T03:21:53;99216.07;;;15.48;100.00
34103;BME280;20381;54.498;18.206;2023-07-13T03:24:19;99221.83;;;15.53;100.00
34103;BME280;20381;54.498;18.206;2023-07-13T03:26:46;99225.29;;;15.53;100.00
34103;BME280;20381;54.498;18.206;2023-07-13T03:29:12;99224.22;;;15.56;100.00
34103;BME280;20381;54.498;18.206;2023-07-13T03:31:39;99224.95;;;15.58;100.00
34103;BME280;20381;54.498;18.206;2023-07-13T03:34:06;99230.91;;;15.60;100.00
34103;BME280;20381;54.498;18.206;2023-07-13T03:36:32;99226.63;;;15.59;100.00
34103;BME280;20381;54.498;18.206;2023-07-13T03:39:01;99229.25;;;15.59;100.00
34103;BME280;20381;54.498;18.206;2023-07-13T03:41:28;99233.93;;;15.61;100.00
34103;BME280;20381;54.498;18.206;2023-07-13T03:43:55;99242.55;;;15.63;100.00
34103;BME280;20381;54.498;18.206;2023-07-13T03:46:24;99228.67;;;15.66;100.00
34103;BME280;20381;54.498;18.206;2023-07-13T03:48:50;99238.23;;;15.67;100.00
34103;BME280;20381;54.498;18.206;2023-07-13T03:51:18;99231.34;;;15.72;100.00
34103;BME280;20381;54.498;18.206;2023-07-13T03:53:46;99224.88;;;15.76;100.00
34103;BME280;20381;54.498;18.206;2023-07-13T03:56:15;99225.95;;;15.79;100.00
34103;BME280;20381;54.498;18.206;2023-07-13T03:58:43;99226.83;;;15.85;100.00
34103;BME280;20381;54.498;18.206;2023-07-13T04:01:12;99230.89;;;15.89;100.00
34103;BME280;20381;54.498;18.206;2023-07-13T04:03:38;99223.13;;;15.94;100.00
34103;BME280;20381;54.498;18.206;2023-07-13T04:06:07;99233.19;;;16.00;100.00
34103;BME280;20381;54.498;18.206;2023-07-13T04:08:36;99238.70;;;16.08;100.00
34103;BME280;20381;54.498;18.206;2023-07-13T04:11:04;99239.87;;;16.15;100.00
34103;BME280;20381;54.498;18.206;2023-07-13T04:13:30;99235.92;;;16.21;100.00
34103;BME280;20381;54.498;18.206;2023-07-13T04:15:57;99236.65;;;16.28;100.00
34103;BME280;20381;54.498;18.206;2023-07-13T04:18:23;99240.36;;;16.31;100.00
34103;BME280;20381;54.498;18.206;2023-07-13T04:20:50;99237.95;;;16.40;100.00
34103;BME280;20381;54.498;18.206;2023-07-13T04:23:17;99232.92;;;16.48;100.00
34103;BME280;20381;54.498;18.206;2023-07-13T04:25:48;99241.06;;;16.56;100.00
34103;BME280;20381;54.498;18.206;2023-07-13T04:28:22;99247.25;;;16.66;100.00
34103;BME280;20381;54.498;18.206;2023-07-13T04:30:49;99251.59;;;16.78;100.00
34103;BME280;20381;54.498;18.206;2023-07-13T04:33:16;99257.81;;;16.89;100.00
34103;BME280;20381;54.498;18.206;2023-07-13T04:35:43;99256.80;;;17.01;100.00
34103;BME280;20381;54.498;18.206;2023-07-13T04:38:12;99266.00;;;17.12;100.00
34103;BME280;20381;54.498;18.206;2023-07-13T04:40:38;99259.61;;;17.20;100.00
34103;BME280;20381;54.498;18.206;2023-07-13T04:43:05;99261.37;;;17.31;100.00
34103;BME280;20381;54.498;18.206;2023-07-13T04:45:31;99255.09;;;17.38;100.00
34103;BME280;20381;54.498;18.206;2023-07-13T04:47:57;99250.11;;;17.50;100.00
34103;BME280;20381;54.498;18.206;2023-07-13T04:50:26;99247.41;;;17.61;100.00
34103;BME280;20381;54.498;18.206;2023-07-13T04:52:52;99250.42;;;17.78;100.00
34103;BME280;20381;54.498;18.206;2023-07-13T04:55:19;99244.72;;;17.94;100.00
34103;BME280;20381;54.498;18.206;2023-07-13T04:57:46;99249.01;;;18.16;100.00
34103;BME280;20381;54.498;18.206;2023-07-13T05:00:17;99249.09;;;18.35;100.00
34103;BME280;20381;54.498;18.206;2023-07-13T05:02:46;99249.00;;;18.56;100.00
34103;BME280;20381;54.498;18.206;2023-07-13T05:05:13;99250.00;;;18.65;100.00
34103;BME280;20381;54.498;18.206;2023-07-13T05:07:39;99244.63;;;18.76;100.00
34103;BME280;20381;54.498;18.206;2023-07-13T05:10:07;99248.96;;;18.87;100.00
34103;BME280;20381;54.498;18.206;2023-07-13T05:12:34;99255.36;;;18.84;100.00
34103;BME280;20381;54.498;18.206;2023-07-13T05:15:05;99253.97;;;18.80;100.00
34103;BME280;20381;54.498;18.206;2023-07-13T05:17:32;99257.23;;;18.78;100.00
34103;BME280;20381;54.498;18.206;2023-07-13T05:19:58;99265.94;;;18.84;100.00
34103;BME280;20381;54.498;18.206;2023-07-13T05:22:24;99269.66;;;18.97;100.00
34103;BME280;20381;54.498;18.206;2023-07-13T05:24:50;99271.41;;;19.12;100.00
34103;BME280;20381;54.498;18.206;2023-07-13T05:27:16;99270.33;;;19.24;100.00
34103;BME280;20381;54.498;18.206;2023-07-13T05:29:43;99275.06;;;19.30;100.00
34103;BME280;20381;54.498;18.206;2023-07-13T05:32:10;99273.93;;;19.42;100.00
34103;BME280;20381;54.498;18.206;2023-07-13T05:34:36;99288.30;;;19.50;100.00
34103;BME280;20381;54.498;18.206;2023-07-13T05:37:04;99290.66;;;19.53;100.00
34103;BME280;20381;54.498;18.206;2023-07-13T05:39:30;99291.33;;;19.55;100.00
34103;BME280;20381;54.498;18.206;2023-07-13T05:41:59;99292.61;;;19.51;100.00
34103;BME280;20381;54.498;18.206;2023-07-13T05:44:29;99300.41;;;19.62;100.00
34103;BME280;20381;54.498;18.206;2023-07-13T05:46:55;99302.52;;;19.68;100.00
34103;BME280;20381;54.498;18.206;2023-07-13T05:49:22;99305.17;;;19.78;100.00
34103;BME280;20381;54.498;18.206;2023-07-13T05:51:49;99308.78;;;19.86;100.00
34103;BME280;20381;54.498;18.206;2023-07-13T05:54:16;99309.95;;;19.98;100.00
34103;BME280;20381;54.498;18.206;2023-07-13T05:56:45;99313.34;;;20.04;100.00
34103;BME280;20381;54.498;18.206;2023-07-13T05:59:12;99316.16;;;20.16;100.00
34103;BME280;20381;54.498;18.206;2023-07-13T06:01:38;99314.03;;;20.29;100.00
34103;BME280;20381;54.498;18.206;2023-07-13T06:04:04;99318.87;;;20.44;100.00
34103;BME280;20381;54.498;18.206;2023-07-13T06:06:35;99317.66;;;20.52;100.00
34103;BME280;20381;54.498;18.206;2023-07-13T06:09:01;99318.09;;;20.57;99.89
34103;BME280;20381;54.498;18.206;2023-07-13T06:11:28;99321.97;;;20.63;99.97
34103;BME280;20381;54.498;18.206;2023-07-13T06:13:56;99323.30;;;20.76;100.00
34103;BME280;20381;54.498;18.206;2023-07-13T06:16:25;99321.81;;;20.92;100.00
34103;BME280;20381;54.498;18.206;2023-07-13T06:18:51;99325.25;;;21.02;99.47
34103;BME280;20381;54.498;18.206;2023-07-13T06:21:19;99323.08;;;21.15;99.10
34103;BME280;20381;54.498;18.206;2023-07-13T06:23:50;99315.12;;;21.33;99.31
34103;BME280;20381;54.498;18.206;2023-07-13T06:26:19;99319.43;;;21.48;98.55
34103;BME280;20381;54.498;18.206;2023-07-13T06:28:47;99328.86;;;21.60;97.96
34103;BME280;20381;54.498;18.206;2023-07-13T06:31:14;99329.64;;;21.75;98.25
34103;BME280;20381;54.498;18.206;2023-07-13T06:33:41;99328.39;;;21.87;97.73
34103;BME280;20381;54.498;18.206;2023-07-13T06:36:09;99326.42;;;21.89;96.31
34103;BME280;20381;54.498;18.206;2023-07-13T06:38:36;99326.38;;;22.07;96.85
34103;BME280;20381;54.498;18.206;2023-07-13T06:41:04;99329.95;;;22.16;96.08
34103;BME280;20381;54.498;18.206;2023-07-13T06:43:30;99324.86;;;22.22;94.04
34103;BME280;20381;54.498;18.206;2023-07-13T06:45:58;99329.78;;;22.43;96.65
34103;BME280;20381;54.498;18.206;2023-07-13T06:48:24;99328.44;;;22.73;96.30
34103;BME280;20381;54.498;18.206;2023-07-13T06:50:51;99328.12;;;23.11;97.18
34103;BME280;20381;54.498;18.206;2023-07-13T06:53:20;99323.81;;;23.26;94.34
34103;BME280;20381;54.498;18.206;2023-07-13T06:55:47;99331.67;;;23.36;93.73
34103;BME280;20381;54.498;18.206;2023-07-13T06:58:16;99331.89;;;23.75;92.72
34103;BME280;20381;54.498;18.206;2023-07-13T07:00:43;99331.54;;;23.99;93.77
34103;BME280;20381;54.498;18.206;2023-07-13T07:03:09;99332.48;;;24.34;94.61
34103;BME280;20381;54.498;18.206;2023-07-13T07:05:35;99332.69;;;24.85;92.17
34103;BME280;20381;54.498;18.206;2023-07-13T07:08:02;99330.37;;;25.40;91.74
34103;BME280;20381;54.498;18.206;2023-07-13T07:10:30;99334.42;;;25.59;92.01
34103;BME280;20381;54.498;18.206;2023-07-13T07:12:58;99337.78;;;25.80;91.28
34103;BME280;20381;54.498;18.206;2023-07-13T07:15:26;99338.16;;;25.73;89.43
34103;BME280;20381;54.498;18.206;2023-07-13T07:17:53;99339.00;;;25.50;91.27
34103;BME280;20381;54.498;18.206;2023-07-13T07:20:19;99327.95;;;26.33;94.94
34103;BME280;20381;54.498;18.206;2023-07-13T07:22:46;99320.00;;;27.57;95.62
34103;BME280;20381;54.498;18.206;2023-07-13T07:25:15;99325.47;;;28.20;89.19
34103;BME280;20381;54.498;18.206;2023-07-13T07:27:40;99324.77;;;28.98;90.78
34103;BME280;20381;54.498;18.206;2023-07-13T07:30:08;99329.95;;;29.68;89.49
34103;BME280;20381;54.498;18.206;2023-07-13T07:32:34;99323.20;;;30.21;89.45
34103;BME280;20381;54.498;18.206;2023-07-13T07:35:05;99331.89;;;30.72;89.84
34103;BME280;20381;54.498;18.206;2023-07-13T07:37:29;99325.28;;;31.04;86.22
34103;BME280;20381;54.498;18.206;2023-07-13T07:39:55;99324.92;;;31.48;87.75
34103;BME280;20381;54.498;18.206;2023-07-13T07:42:22;99336.51;;;32.55;86.97
34103;BME280;20381;54.498;18.206;2023-07-13T07:44:51;99340.41;;;33.05;85.69
34103;BME280;20381;54.498;18.206;2023-07-13T07:47:18;99335.08;;;33.29;85.16
34103;BME280;20381;54.498;18.206;2023-07-13T07:49:45;99342.06;;;33.57;81.90
34103;BME280;20381;54.498;18.206;2023-07-13T07:52:11;99341.27;;;33.69;84.63
34103;BME280;20381;54.498;18.206;2023-07-13T07:54:38;99344.77;;;33.78;82.25
34103;BME280;20381;54.498;18.206;2023-07-13T07:57:04;99346.37;;;33.56;81.72
34103;BME280;20381;54.498;18.206;2023-07-13T07:59:31;99341.55;;;33.49;77.04
34103;BME280;20381;54.498;18.206;2023-07-13T08:01:57;99336.11;;;33.37;78.76
34103;BME280;20381;54.498;18.206;2023-07-13T08:04:23;99345.81;;;32.78;77.03
34103;BME280;20381;54.498;18.206;2023-07-13T08:06:49;99347.38;;;32.48;77.47
34103;BME280;20381;54.498;18.206;2023-07-13T08:09:16;99346.78;;;33.11;76.02
34103;BME280;20381;54.498;18.206;2023-07-13T08:11:42;99345.00;;;34.09;77.67
34103;BME280;20381;54.498;18.206;2023-07-13T08:14:08;99345.28;;;35.38;75.80
34103;BME280;20381;54.498;18.206;2023-07-13T08:16:35;99347.27;;;36.61;74.85
34103;BME280;20381;54.498;18.206;2023-07-13T08:19:01;99345.64;;;36.85;72.39
34103;BME280;20381;54.498;18.206;2023-07-13T08:21:28;99343.88;;;36.73;70.78
34103;BME280;20381;54.498;18.206;2023-07-13T08:23:55;99341.59;;;35.93;69.16
34103;BME280;20381;54.498;18.206;2023-07-13T08:26:21;99342.87;;;36.41;71.84
34103;BME280;20381;54.498;18.206;2023-07-13T08:28:48;99351.28;;;37.00;71.32
34103;BME280;20381;54.498;18.206;2023-07-13T08:31:14;99355.30;;;38.01;70.33
34103;BME280;20381;54.498;18.206;2023-07-13T08:33:41;99355.19;;;38.78;69.73
34103;BME280;20381;54.498;18.206;2023-07-13T08:36:08;99348.33;;;39.41;68.47
34103;BME280;20381;54.498;18.206;2023-07-13T08:38:35;99351.34;;;39.73;65.19
34103;BME280;20381;54.498;18.206;2023-07-13T08:41:09;99351.35;;;40.03;64.31
34103;BME280;20381;54.498;18.206;2023-07-13T08:43:36;99358.98;;;39.73;63.04
34103;BME280;20381;54.498;18.206;2023-07-13T08:46:16;99354.30;;;38.62;60.37
34103;BME280;20381;54.498;18.206;2023-07-13T08:54:04;99360.89;;;39.42;59.00
34103;BME280;20381;54.498;18.206;2023-07-13T08:56:32;99360.89;;;39.42;59.00
34103;BME280;20381;54.498;18.206;2023-07-13T08:59:14;99364.72;;;37.91;56.51
34103;BME280;20381;54.498;18.206;2023-07-13T09:02:00;99364.72;;;37.91;56.51
34103;BME280;20381;54.498;18.206;2023-07-13T09:04:34;99368.77;;;36.26;56.57
34103;BME280;20381;54.498;18.206;2023-07-13T09:10:02;99368.47;;;33.74;56.16
34103;BME280;20381;54.498;18.206;2023-07-13T09:12:51;99372.69;;;32.72;57.21
34103;BME280;20381;54.498;18.206;2023-07-13T09:17:55;99364.31;;;32.12;55.90
34103;BME280;20381;54.498;18.206;2023-07-13T09:20:31;99362.23;;;31.57;55.92
34103;BME280;20381;54.498;18.206;2023-07-13T09:23:04;99368.17;;;30.76;55.54
34103;BME280;20381;54.498;18.206;2023-07-13T09:25:34;99373.23;;;29.86;55.71
34103;BME280;20381;54.498;18.206;2023-07-13T09:28:17;99376.16;;;28.99;55.63
34103;BME280;20381;54.498;18.206;2023-07-13T09:31:09;99380.06;;;28.16;55.79
34103;BME280;20381;54.498;18.206;2023-07-13T09:33:37;99380.50;;;27.34;56.10
34103;BME280;20381;54.498;18.206;2023-07-13T09:36:16;99381.86;;;26.64;56.74
34103;BME280;20381;54.498;18.206;2023-07-13T09:38:33;99390.19;;;26.31;56.56
34103;BME280;20381;54.498;18.206;2023-07-13T09:46:46;99395.89;;;25.36;57.76
34103;BME280;20381;54.498;18.206;2023-07-13T09:49:13;99389.48;;;25.06;57.96
34103;BME280;20381;54.498;18.206;2023-07-13T09:51:42;99401.75;;;24.84;58.31
34103;BME280;20381;54.498;18.206;2023-07-13T09:54:18;99392.97;;;24.67;58.02
34103;BME280;20381;54.498;18.206;2023-07-13T09:56:45;99397.85;;;24.47;58.92
34103;BME280;20381;54.498;18.206;2023-07-13T09:59:20;99393.33;;;24.39;58.95
34103;BME280;20381;54.498;18.206;2023-07-13T10:01:47;99388.19;;;24.46;59.26
34103;BME280;20381;54.498;18.206;2023-07-13T10:04:33;99387.12;;;24.71;59.85
34103;BME280;20381;54.498;18.206;2023-07-13T10:06:45;99391.64;;;25.18;60.17
34103;BME280;20381;54.498;18.206;2023-07-13T10:09:16;99392.78;;;25.51;60.40
34103;BME280;20381;54.498;18.206;2023-07-13T10:11:43;99390.02;;;26.47;63.05
34103;BME280;20381;54.498;18.206;2023-07-13T10:14:18;99377.71;;;29.52;64.25
34103;BME280;20381;54.498;18.206;2023-07-13T10:16:45;99381.25;;;32.69;62.81
34103;BME280;20381;54.498;18.206;2023-07-13T10:19:27;99372.11;;;35.37;62.24
34103;BME280;20381;54.498;18.206;2023-07-13T10:22:02;99385.25;;;36.76;60.59
34103;BME280;20381;54.498;18.206;2023-07-13T10:24:34;99386.17;;;37.03;59.99
34103;BME280;20381;54.498;18.206;2023-07-13T10:27:29;99387.12;;;36.53;57.91
34103;BME280;20381;54.498;18.206;2023-07-13T10:29:59;99390.80;;;35.79;57.83
34103;BME280;20381;54.498;18.206;2023-07-13T10:32:24;99388.72;;;34.86;57.19
34103;BME280;20381;54.498;18.206;2023-07-13T10:34:51;99389.16;;;34.22;57.74
34103;BME280;20381;54.498;18.206;2023-07-13T10:37:26;99387.53;;;33.67;57.67
34103;BME280;20381;54.498;18.206;2023-07-13T10:39:55;99389.95;;;32.90;56.67
34103;BME280;20381;54.498;18.206;2023-07-13T10:42:32;99389.73;;;32.29;56.34
34103;BME280;20381;54.498;18.206;2023-07-13T10:44:58;99390.14;;;32.17;56.55
34103;BME280;20381;54.498;18.206;2023-07-13T10:47:25;99391.87;;;32.21;56.16
34103;BME280;20381;54.498;18.206;2023-07-13T10:49:55;99387.17;;;34.29;59.45
34103;BME280;20381;54.498;18.206;2023-07-13T10:52:44;99389.75;;;36.87;58.37
34103;BME280;20381;54.498;18.206;2023-07-13T10:55:36;99382.64;;;37.30;53.81
34103;BME280;20381;54.498;18.206;2023-07-13T10:58:11;99389.09;;;35.90;52.95
34103;BME280;20381;54.498;18.206;2023-07-13T11:01:01;99395.17;;;34.47;53.47
34103;BME280;20381;54.498;18.206;2023-07-13T11:03:17;99394.09;;;33.59;54.06
34103;BME280;20381;54.498;18.206;2023-07-13T11:05:50;99402.20;;;32.92;53.86
34103;BME280;20381;54.498;18.206;2023-07-13T11:10:59;99393.32;;;35.24;55.74
34103;BME280;20381;54.498;18.206;2023-07-13T11:16:13;99392.37;;;37.75;50.77
34103;BME280;20381;54.498;18.206;2023-07-13T11:18:47;99391.56;;;36.59;51.90
34103;BME280;20381;54.498;18.206;2023-07-13T11:23:45;99406.86;;;34.71;50.28
34103;BME280;20381;54.498;18.206;2023-07-13T11:26:38;99404.13;;;33.71;52.21
34103;BME280;20381;54.498;18.206;2023-07-13T11:29:17;99404.41;;;34.14;51.54
34103;BME280;20381;54.498;18.206;2023-07-13T11:31:37;99394.25;;;35.29;51.82
34103;BME280;20381;54.498;18.206;2023-07-13T11:34:06;99402.36;;;36.37;49.73
34103;BME280;20381;54.498;18.206;2023-07-13T11:36:36;99402.22;;;37.27;47.89
34103;BME280;20381;54.498;18.206;2023-07-13T11:39:22;99405.31;;;38.22;49.38
34103;BME280;20381;54.498;18.206;2023-07-13T11:41:43;99401.18;;;39.02;49.21
34103;BME280;20381;54.498;18.206;2023-07-13T11:44:15;99399.15;;;39.50;48.56
34103;BME280;20381;54.498;18.206;2023-07-13T11:46:47;99409.58;;;38.92;46.74
34103;BME280;20381;54.498;18.206;2023-07-13T11:49:23;99408.64;;;37.65;45.42
34103;BME280;20381;54.498;18.206;2023-07-13T11:51:50;99409.31;;;36.11;46.27
34103;BME280;20381;54.498;18.206;2023-07-13T11:54:23;99417.57;;;34.54;46.39
34103;BME280;20381;54.498;18.206;2023-07-13T11:56:49;99417.03;;;33.99;47.93
34103;BME280;20381;54.498;18.206;2023-07-13T11:59:16;99412.09;;;34.75;47.76
34103;BME280;20381;54.498;18.206;2023-07-13T12:01:53;99416.72;;;35.01;46.38
34103;BME280;20381;54.498;18.206;2023-07-13T12:04:28;99408.42;;;35.19;46.78
34103;BME280;20381;54.498;18.206;2023-07-13T12:06:58;99406.52;;;35.20;46.17
34103;BME280;20381;54.498;18.206;2023-07-13T12:09:27;99403.53;;;35.33;45.68
34103;BME280;20381;54.498;18.206;2023-07-13T12:11:54;99407.17;;;34.98;44.83
34103;BME280;20381;54.498;18.206;2023-07-13T12:14:20;99408.44;;;34.46;44.86
34103;BME280;20381;54.498;18.206;2023-07-13T12:16:48;99406.98;;;33.76;45.00
34103;BME280;20381;54.498;18.206;2023-07-13T12:19:25;99412.34;;;33.15;45.24
34103;BME280;20381;54.498;18.206;2023-07-13T12:21:48;99416.06;;;32.34;43.59
34103;BME280;20381;54.498;18.206;2023-07-13T12:24:17;99419.66;;;31.26;44.88
34103;BME280;20381;54.498;18.206;2023-07-13T12:26:48;99420.88;;;30.45;45.75
34103;BME280;20381;54.498;18.206;2023-07-13T12:29:15;99420.32;;;29.99;45.89
34103;BME280;20381;54.498;18.206;2023-07-13T12:31:48;99419.50;;;29.92;46.22
34103;BME280;20381;54.498;18.206;2023-07-13T12:34:18;99416.89;;;29.88;46.21
34103;BME280;20381;54.498;18.206;2023-07-13T12:36:56;99404.09;;;29.59;46.01
34103;BME280;20381;54.498;18.206;2023-07-13T12:41:54;99412.64;;;28.34;46.79
34103;BME280;20381;54.498;18.206;2023-07-13T12:44:26;99403.97;;;28.11;46.95
34103;BME280;20381;54.498;18.206;2023-07-13T12:46:55;99407.17;;;28.00;47.42
34103;BME280;20381;54.498;18.206;2023-07-13T12:49:25;99398.99;;;27.86;47.04
34103;BME280;20381;54.498;18.206;2023-07-13T12:51:59;99403.19;;;27.74;47.57
34103;BME280;20381;54.498;18.206;2023-07-13T12:54:28;99394.68;;;27.49;47.49
34103;BME280;20381;54.498;18.206;2023-07-13T12:56:55;99391.23;;;27.34;48.10
34103;BME280;20381;54.498;18.206;2023-07-13T12:59:25;99387.11;;;27.27;48.04
34103;BME280;20381;54.498;18.206;2023-07-13T13:01:53;99390.62;;;27.17;47.90
34103;BME280;20381;54.498;18.206;2023-07-13T13:04:20;99389.73;;;27.06;48.28
34103;BME280;20381;54.498;18.206;2023-07-13T13:06:47;99386.22;;;26.90;48.56
34103;BME280;20381;54.498;18.206;2023-07-13T13:09:15;99392.73;;;26.77;47.54
34103;BME280;20381;54.498;18.206;2023-07-13T13:11:42;99394.19;;;26.50;48.33
34103;BME280;20381;54.498;18.206;2023-07-13T13:14:08;99393.15;;;26.36;48.96
34103;BME280;20381;54.498;18.206;2023-07-13T13:16:37;99390.77;;;26.41;49.19
34103;BME280;20381;54.498;18.206;2023-07-13T13:19:10;99384.11;;;26.56;48.97
34103;BME280;20381;54.498;18.206;2023-07-13T13:21:33;99385.90;;;26.60;49.09
34103;BME280;20381;54.498;18.206;2023-07-13T13:23:59;99386.33;;;26.48;49.26